createdAt,value
2019-03-23T00:00:39.270Z,10.20
2019-03-23T00:01:39.260Z,11.20
2019-03-23T00:02:39.271Z,11.40
2019-03-23T00:03:39.237Z,11.50
2019-03-23T00:04:39.233Z,11.70
2019-03-23T00:05:39.220Z,12.10
2019-03-23T00:06:39.203Z,11.40
2019-03-23T00:07:39.227Z,11.50
2019-03-23T00:08:39.186Z,12.10
2019-03-23T00:09:39.171Z,12.10
2019-03-23T00:10:39.166Z,11.90
2019-03-23T00:11:39.155Z,11.90
2019-03-23T00:12:39.159Z,12.20
2019-03-23T00:13:39.135Z,12.50
2019-03-23T00:14:39.120Z,11.50
2019-03-23T00:15:39.131Z,11.90
2019-03-23T00:16:39.098Z,12.10
2019-03-23T00:17:39.101Z,11.60
2019-03-23T00:18:39.074Z,12.00
2019-03-23T00:19:39.079Z,11.90
2019-03-23T00:20:39.063Z,11.50
2019-03-23T00:21:39.035Z,11.50
2019-03-23T00:22:39.049Z,11.50
2019-03-23T00:23:39.015Z,11.50
2019-03-23T00:24:39.016Z,11.90
2019-03-23T00:25:39.027Z,11.60
2019-03-23T00:26:38.989Z,11.70
2019-03-23T00:27:39.053Z,11.50
2019-03-23T00:28:38.965Z,11.70
2019-03-23T00:29:38.953Z,11.50
2019-03-23T00:30:38.952Z,12.10
2019-03-23T00:31:38.928Z,11.50
2019-03-23T00:32:38.934Z,11.80
2019-03-23T00:33:38.911Z,12.30
2019-03-23T00:34:38.896Z,12.00
2019-03-23T00:35:38.897Z,11.70
2019-03-23T00:36:41.711Z,12.20
2019-03-23T00:37:38.887Z,11.50
2019-03-23T00:38:38.860Z,12.00
2019-03-23T00:39:38.856Z,11.90
2019-03-23T00:40:38.838Z,12.30
2019-03-23T00:41:38.835Z,11.60
2019-03-23T00:42:38.833Z,12.00
2019-03-23T00:43:38.816Z,11.70
2019-03-23T00:44:38.788Z,11.90
2019-03-23T00:45:38.785Z,12.10
2019-03-23T00:46:38.778Z,12.20
2019-03-23T00:47:38.806Z,11.40
2019-03-23T00:48:38.751Z,12.10
2019-03-23T00:49:38.738Z,12.70
2019-03-23T00:50:38.727Z,12.10
2019-03-23T00:51:38.725Z,12.60
2019-03-23T00:52:38.713Z,11.50
2019-03-23T00:53:38.689Z,12.40
2019-03-23T00:54:38.697Z,11.80
2019-03-23T00:55:38.683Z,12.30
2019-03-23T00:56:38.995Z,11.90
2019-03-23T00:57:38.669Z,11.80
2019-03-23T00:58:38.636Z,11.70
2019-03-23T00:59:38.629Z,11.10
2019-03-23T01:00:38.610Z,11.20
2019-03-23T01:01:38.600Z,11.90
2019-03-23T01:02:38.618Z,11.80
2019-03-23T01:04:48.104Z,9.40
2019-03-23T01:05:49.123Z,10.50
2019-03-23T01:06:52.309Z,12.10
2019-03-23T01:07:49.076Z,11.50
2019-03-23T01:08:49.055Z,11.90
2019-03-23T01:09:49.038Z,11.60
2019-03-23T01:10:49.037Z,11.50
2019-03-23T01:11:49.021Z,12.00
2019-03-23T01:12:49.029Z,11.70
2019-03-23T01:13:49.011Z,11.70
2019-03-23T01:14:48.999Z,11.50
2019-03-23T01:15:48.974Z,11.70
2019-03-23T01:16:48.973Z,11.10
2019-03-23T01:17:48.981Z,11.50
2019-03-23T01:18:48.943Z,11.00
2019-03-23T01:19:48.940Z,11.20
2019-03-23T01:20:49.840Z,11.00
2019-03-23T01:21:48.918Z,11.50
2019-03-23T01:22:48.925Z,11.30
2019-03-23T01:23:48.896Z,11.10
2019-03-23T01:24:48.880Z,11.60
2019-03-23T01:25:48.863Z,11.20
2019-03-23T01:26:48.865Z,11.10
2019-03-23T01:27:48.856Z,11.20
2019-03-23T01:28:48.844Z,11.40
2019-03-23T01:29:48.820Z,11.40
2019-03-23T01:30:48.815Z,11.50
2019-03-23T01:31:48.802Z,11.70
2019-03-23T01:32:48.813Z,11.70
2019-03-23T01:33:48.788Z,11.70
2019-03-23T01:34:48.768Z,12.20
2019-03-23T01:35:48.754Z,12.30
2019-03-23T01:36:48.762Z,12.50
2019-03-23T01:37:48.759Z,12.10
2019-03-23T01:38:48.732Z,12.50
2019-03-23T01:39:48.720Z,12.10
2019-03-23T01:40:48.712Z,12.40
2019-03-23T01:41:48.693Z,12.50
2019-03-23T01:42:48.707Z,12.30
2019-03-23T01:43:48.674Z,11.80
2019-03-23T01:44:48.676Z,12.40
2019-03-23T01:45:48.664Z,13.30
2019-03-23T01:46:48.648Z,17.60
2019-03-23T01:47:48.659Z,18.80
2019-03-23T01:48:48.625Z,17.70
2019-03-23T01:49:48.610Z,16.00
2019-03-23T01:50:48.609Z,16.10
2019-03-23T01:51:48.620Z,14.30
2019-03-23T01:52:48.615Z,13.90
2019-03-23T01:53:48.574Z,13.90
2019-03-23T01:54:48.573Z,13.60
2019-03-23T01:55:48.540Z,13.50
2019-03-23T01:56:48.569Z,13.50
2019-03-23T01:57:49.064Z,11.90
2019-03-23T01:58:48.515Z,14.00
2019-03-23T01:59:48.505Z,12.90
2019-03-23T02:00:48.485Z,13.30
2019-03-23T02:01:48.480Z,12.70
2019-03-23T02:02:48.482Z,13.40
2019-03-23T02:03:48.463Z,12.50
2019-03-23T02:04:48.447Z,12.70
2019-03-23T02:05:48.440Z,12.90
2019-03-23T02:06:48.417Z,13.50
2019-03-23T02:07:48.437Z,14.30
2019-03-23T02:08:48.407Z,13.90
2019-03-23T02:09:48.387Z,14.40
2019-03-23T02:10:48.383Z,13.50
2019-03-23T02:11:48.363Z,13.30
2019-03-23T02:12:48.381Z,13.70
2019-03-23T02:13:48.350Z,13.90
2019-03-23T02:14:48.343Z,13.30
2019-03-23T02:15:48.341Z,14.80
2019-03-23T02:16:48.311Z,13.70
2019-03-23T02:17:48.318Z,15.00
2019-03-23T02:18:48.304Z,14.40
2019-03-23T02:19:48.277Z,15.00
2019-03-23T02:20:48.275Z,14.90
2019-03-23T02:21:48.283Z,14.60
2019-03-23T02:22:48.274Z,15.40
2019-03-23T02:23:48.242Z,14.40
2019-03-23T02:24:48.232Z,15.00
2019-03-23T02:25:48.221Z,16.00
2019-03-23T02:26:48.224Z,15.30
2019-03-23T02:27:48.206Z,15.80
2019-03-23T02:28:48.178Z,15.20
2019-03-23T02:29:48.182Z,14.70
2019-03-23T02:30:48.175Z,15.70
2019-03-23T02:31:48.146Z,15.70
2019-03-23T02:32:48.169Z,14.90
2019-03-23T02:33:48.145Z,14.80
2019-03-23T02:34:48.129Z,14.60
2019-03-23T02:35:48.114Z,14.70
2019-03-23T02:36:48.105Z,15.30
2019-03-23T02:37:48.104Z,15.10
2019-03-23T02:38:48.076Z,14.70
2019-03-23T02:39:48.066Z,14.80
2019-03-23T02:40:48.051Z,15.10
2019-03-23T02:41:48.044Z,14.50
2019-03-23T02:42:48.055Z,15.10
2019-03-23T02:43:48.025Z,14.50
2019-03-23T02:44:48.018Z,15.00
2019-03-23T02:45:48.007Z,14.10
2019-03-23T02:46:47.994Z,14.60
2019-03-23T02:47:48.001Z,14.20
2019-03-23T02:48:47.989Z,14.00
2019-03-23T02:49:47.996Z,14.20
2019-03-23T02:50:47.959Z,14.90
2019-03-23T02:51:47.939Z,14.10
2019-03-23T02:52:47.925Z,14.40
2019-03-23T02:53:47.947Z,15.70
2019-03-23T02:54:47.902Z,16.10
2019-03-23T02:55:47.893Z,15.60
2019-03-23T02:56:47.883Z,16.20
2019-03-23T02:57:47.869Z,16.80
2019-03-23T02:58:47.896Z,17.00
2019-03-23T02:59:47.860Z,16.80
2019-03-23T03:00:47.834Z,16.80
2019-03-23T03:01:47.840Z,17.30
2019-03-23T03:02:47.823Z,16.10
2019-03-23T03:03:47.843Z,16.50
2019-03-23T03:05:56.989Z,14.60
2019-03-23T03:06:57.988Z,16.50
2019-03-23T03:07:57.986Z,16.20
2019-03-23T03:08:57.958Z,16.80
2019-03-23T03:09:57.956Z,16.60
2019-03-23T03:10:57.946Z,16.50
2019-03-23T03:11:57.930Z,16.80
2019-03-23T03:12:57.942Z,16.80
2019-03-23T03:13:57.930Z,17.20
2019-03-23T03:14:57.909Z,16.60
2019-03-23T03:15:57.919Z,17.20
2019-03-23T03:16:57.875Z,17.10
2019-03-23T03:17:57.870Z,18.20
2019-03-23T03:18:57.861Z,19.50
2019-03-23T03:19:57.855Z,21.00
2019-03-23T03:20:57.833Z,20.50
2019-03-23T03:21:58.728Z,21.60
2019-03-23T03:22:57.799Z,24.20
2019-03-23T03:23:57.836Z,24.30
2019-03-23T03:24:57.797Z,24.80
2019-03-23T03:25:57.789Z,23.50
2019-03-23T03:26:57.769Z,25.30
2019-03-23T03:27:57.762Z,25.30
2019-03-23T03:28:57.769Z,25.90
2019-03-23T03:29:57.743Z,25.80
2019-03-23T03:30:57.725Z,25.50
2019-03-23T03:31:57.716Z,25.60
2019-03-23T03:32:57.703Z,26.90
2019-03-23T03:33:57.701Z,26.90
2019-03-23T03:34:57.757Z,27.20
2019-03-23T03:35:57.657Z,27.60
2019-03-23T03:36:57.660Z,28.70
2019-03-23T03:37:57.662Z,29.20
2019-03-23T03:38:57.654Z,29.70
2019-03-23T03:39:57.627Z,31.10
2019-03-23T03:40:57.610Z,30.70
2019-03-23T03:41:57.598Z,32.00
2019-03-23T03:42:57.593Z,31.60
2019-03-23T03:43:57.598Z,32.10
2019-03-23T03:44:57.574Z,33.90
2019-03-23T03:45:57.556Z,36.30
2019-03-23T03:46:57.543Z,36.00
2019-03-23T03:47:57.559Z,38.40
2019-03-23T03:49:11.487Z,39.70
2019-03-23T03:49:57.511Z,44.20
2019-03-23T03:50:57.506Z,45.00
2019-03-23T03:51:57.502Z,44.90
2019-03-23T03:52:57.472Z,48.10
2019-03-23T03:53:57.495Z,53.00
2019-03-23T03:54:57.457Z,49.90
2019-03-23T03:55:57.479Z,51.10
2019-03-23T03:56:57.447Z,55.50
2019-03-23T03:57:57.419Z,56.20
2019-03-23T03:58:57.427Z,58.10
2019-03-23T03:59:57.397Z,60.90
2019-03-23T04:00:57.396Z,66.90
2019-03-23T04:01:57.380Z,66.40
2019-03-23T04:02:57.358Z,69.50
2019-03-23T04:03:57.389Z,73.40
2019-03-23T04:04:57.361Z,79.70
2019-03-23T04:05:57.339Z,80.00
2019-03-23T04:06:57.331Z,83.30
2019-03-23T04:08:10.442Z,90.60
2019-03-23T04:08:57.326Z,90.30
2019-03-23T04:09:57.294Z,93.30
2019-03-23T04:10:57.289Z,94.80
2019-03-23T04:11:57.276Z,96.50
2019-03-23T04:12:57.265Z,100.70
2019-03-23T04:13:57.282Z,98.60
2019-03-23T04:14:57.245Z,99.70
2019-03-23T04:15:57.246Z,103.60
2019-03-23T04:16:57.285Z,102.70
2019-03-23T04:17:57.218Z,104.60
2019-03-23T04:18:57.222Z,110.20
2019-03-23T04:19:57.179Z,106.20
2019-03-23T04:20:57.179Z,104.60
2019-03-23T04:21:57.162Z,111.90
2019-03-23T04:22:57.159Z,109.60
2019-03-23T04:23:57.167Z,110.00
2019-03-23T04:24:57.128Z,109.60
2019-03-23T04:25:57.166Z,109.80
2019-03-23T04:26:57.111Z,107.90
2019-03-23T04:27:57.098Z,110.70
2019-03-23T04:28:57.106Z,111.70
2019-03-23T04:29:57.081Z,110.30
2019-03-23T04:30:57.081Z,108.30
2019-03-23T04:31:57.131Z,109.60
2019-03-23T04:32:57.047Z,108.40
2019-03-23T04:33:57.048Z,112.70
2019-03-23T04:34:57.029Z,112.60
2019-03-23T04:35:57.008Z,111.30
2019-03-23T04:36:57.011Z,109.60
2019-03-23T04:37:56.986Z,109.40
2019-03-23T04:38:57.008Z,109.30
2019-03-23T04:39:56.973Z,111.80
2019-03-23T04:40:56.964Z,113.70
2019-03-23T04:41:56.941Z,108.90
2019-03-23T04:42:56.950Z,108.60
2019-03-23T04:43:56.945Z,110.10
2019-03-23T04:44:56.912Z,109.90
2019-03-23T04:45:56.946Z,113.40
2019-03-23T04:46:56.893Z,111.80
2019-03-23T04:47:56.886Z,108.80
2019-03-23T04:48:56.890Z,109.50
2019-03-23T04:49:56.854Z,108.60
2019-03-23T04:50:57.755Z,109.90
2019-03-23T04:51:56.841Z,113.80
2019-03-23T04:52:56.832Z,111.50
2019-03-23T04:53:56.836Z,111.70
2019-03-23T04:54:56.816Z,108.00
2019-03-23T04:55:56.802Z,105.70
2019-03-23T04:56:56.808Z,109.80
2019-03-23T04:57:56.777Z,102.20
2019-03-23T04:58:56.780Z,102.50
2019-03-23T04:59:56.743Z,102.30
2019-03-23T05:00:56.752Z,100.50
2019-03-23T05:01:56.722Z,99.00
2019-03-23T05:02:56.716Z,101.40
2019-03-23T05:03:56.724Z,99.40
2019-03-23T05:04:56.725Z,100.90
2019-03-23T05:07:16.880Z,94.70
2019-03-23T05:08:17.822Z,97.90
2019-03-23T05:09:17.829Z,95.00
2019-03-23T05:10:17.798Z,98.70
2019-03-23T05:11:17.790Z,92.10
2019-03-23T05:12:17.769Z,92.60
2019-03-23T05:13:17.761Z,92.70
2019-03-23T05:14:17.773Z,91.70
2019-03-23T05:15:17.735Z,89.60
2019-03-23T05:16:17.727Z,89.50
2019-03-23T05:17:17.723Z,88.60
2019-03-23T05:18:17.720Z,88.90
2019-03-23T05:19:17.715Z,87.10
2019-03-23T05:20:17.695Z,88.10
2019-03-23T05:21:17.677Z,86.50
2019-03-23T05:22:17.661Z,85.50
2019-03-23T05:23:17.668Z,85.70
2019-03-23T05:24:17.650Z,84.20
2019-03-23T05:25:17.629Z,84.30
2019-03-23T05:26:17.625Z,82.70
2019-03-23T05:27:17.616Z,85.30
2019-03-23T05:28:17.594Z,84.50
2019-03-23T05:29:17.608Z,82.80
2019-03-23T05:30:17.573Z,82.40
2019-03-23T05:31:17.576Z,84.20
2019-03-23T05:32:18.161Z,82.80
2019-03-23T05:33:17.549Z,83.50
2019-03-23T05:34:17.541Z,79.20
2019-03-23T05:35:17.530Z,82.20
2019-03-23T05:36:17.502Z,83.70
2019-03-23T05:37:17.497Z,81.70
2019-03-23T05:38:17.481Z,81.80
2019-03-23T05:39:17.494Z,82.00
2019-03-23T05:40:17.470Z,80.50
2019-03-23T05:41:17.507Z,79.10
2019-03-23T05:42:17.441Z,80.90
2019-03-23T05:43:17.440Z,79.30
2019-03-23T05:44:17.434Z,78.40
2019-03-23T05:45:17.415Z,78.60
2019-03-23T05:46:17.412Z,78.80
2019-03-23T05:47:17.401Z,79.20
2019-03-23T05:48:17.385Z,78.90
2019-03-23T05:49:17.475Z,79.90
2019-03-23T05:50:17.357Z,77.80
2019-03-23T05:51:17.351Z,80.40
2019-03-23T05:52:17.336Z,80.70
2019-03-23T05:53:17.330Z,82.90
2019-03-23T05:54:17.335Z,78.70
2019-03-23T05:55:17.298Z,80.70
2019-03-23T05:56:17.301Z,81.00
2019-03-23T05:57:19.749Z,77.90
2019-03-23T05:58:17.271Z,81.10
2019-03-23T05:59:17.286Z,78.70
2019-03-23T06:00:17.258Z,79.30
2019-03-23T06:01:17.243Z,80.00
2019-03-23T06:02:17.219Z,79.20
2019-03-23T06:03:17.220Z,79.80
2019-03-23T06:04:17.223Z,79.30
2019-03-23T06:05:17.198Z,78.40
2019-03-23T06:06:17.189Z,77.50
2019-03-23T06:07:18.158Z,75.90
2019-03-23T06:08:17.165Z,73.70
2019-03-23T06:09:17.170Z,72.10
2019-03-23T06:10:17.135Z,74.70
2019-03-23T06:11:17.140Z,77.00
2019-03-23T06:12:17.758Z,75.40
2019-03-23T06:13:17.103Z,75.10
2019-03-23T06:14:17.117Z,74.50
2019-03-23T06:15:17.093Z,73.80
2019-03-23T06:16:17.990Z,76.50
2019-03-23T06:17:17.084Z,78.20
2019-03-23T06:18:17.044Z,77.60
2019-03-23T06:19:17.068Z,77.90
2019-03-23T06:20:17.043Z,77.70
2019-03-23T06:21:17.026Z,77.30
2019-03-23T06:22:17.007Z,79.70
2019-03-23T06:23:16.994Z,77.50
2019-03-23T06:24:17.010Z,78.70
2019-03-23T06:25:16.978Z,80.00
2019-03-23T06:26:16.967Z,77.00
2019-03-23T06:27:16.957Z,77.10
2019-03-23T06:28:16.951Z,75.40
2019-03-23T06:29:16.950Z,73.60
2019-03-23T06:30:16.923Z,72.00
2019-03-23T06:31:16.918Z,76.70
2019-03-23T06:32:16.908Z,74.70
2019-03-23T06:33:16.897Z,76.10
2019-03-23T06:34:16.899Z,75.30
2019-03-23T06:35:16.865Z,77.80
2019-03-23T06:36:16.867Z,75.00
2019-03-23T06:37:16.853Z,75.20
2019-03-23T06:38:16.838Z,75.50
2019-03-23T06:39:16.841Z,74.20
2019-03-23T06:40:16.806Z,74.50
2019-03-23T06:41:16.799Z,73.70
2019-03-23T06:42:16.794Z,72.00
2019-03-23T06:43:16.785Z,71.40
2019-03-23T06:44:18.388Z,71.60
2019-03-23T06:45:16.753Z,74.60
2019-03-23T06:46:16.746Z,74.60
2019-03-23T06:47:16.734Z,71.70
2019-03-23T06:48:16.726Z,72.80
2019-03-23T06:49:16.748Z,72.20
2019-03-23T06:50:16.701Z,73.60
2019-03-23T06:51:16.684Z,72.30
2019-03-23T06:52:16.690Z,70.80
2019-03-23T06:53:16.672Z,74.50
2019-03-23T06:54:16.677Z,75.00
2019-03-23T06:55:16.653Z,73.60
2019-03-23T06:56:16.626Z,71.90
2019-03-23T06:57:16.627Z,75.20
2019-03-23T06:58:16.611Z,75.80
2019-03-23T06:59:16.623Z,78.90
2019-03-23T07:00:16.620Z,76.80
2019-03-23T07:01:16.594Z,73.00
2019-03-23T07:02:16.571Z,75.20
2019-03-23T07:03:16.556Z,74.40
2019-03-23T07:04:16.550Z,74.40
2019-03-23T07:05:16.552Z,71.30
2019-03-23T07:06:16.531Z,75.60
2019-03-23T07:08:31.880Z,65.60
2019-03-23T07:09:26.714Z,72.10
2019-03-23T07:10:26.678Z,76.00
2019-03-23T07:11:26.667Z,76.50
2019-03-23T07:12:26.665Z,76.20
2019-03-23T07:13:26.662Z,74.50
2019-03-23T07:14:26.659Z,70.60
2019-03-23T07:15:26.627Z,73.40
2019-03-23T07:16:26.616Z,73.50
2019-03-23T07:17:26.606Z,75.80
2019-03-23T07:18:26.603Z,71.10
2019-03-23T07:19:26.608Z,74.10
2019-03-23T07:20:26.581Z,73.60
2019-03-23T07:21:26.573Z,74.60
2019-03-23T07:22:26.557Z,75.70
2019-03-23T07:23:26.550Z,74.50
2019-03-23T07:24:26.558Z,74.10
2019-03-23T07:25:26.519Z,73.40
2019-03-23T07:26:26.522Z,75.10
2019-03-23T07:27:26.495Z,75.60
2019-03-23T07:28:26.489Z,73.80
2019-03-23T07:29:26.492Z,76.10
2019-03-23T07:30:26.471Z,74.60
2019-03-23T07:31:26.477Z,74.40
2019-03-23T07:32:26.462Z,72.80
2019-03-23T07:33:26.449Z,74.10
2019-03-23T07:34:26.447Z,69.60
2019-03-23T07:35:26.441Z,73.40
2019-03-23T07:36:26.416Z,73.10
2019-03-23T07:37:26.387Z,71.00
2019-03-23T07:38:26.386Z,71.00
2019-03-23T07:39:29.113Z,73.10
2019-03-23T07:40:26.367Z,70.00
2019-03-23T07:41:26.349Z,73.10
2019-03-23T07:42:26.329Z,69.20
2019-03-23T07:43:26.336Z,69.00
2019-03-23T07:44:26.318Z,70.90
2019-03-23T07:45:26.313Z,67.70
2019-03-23T07:46:26.289Z,68.30
2019-03-23T07:47:26.281Z,66.50
2019-03-23T07:48:28.458Z,65.40
2019-03-23T07:49:26.256Z,66.60
2019-03-23T07:50:26.266Z,66.60
2019-03-23T07:51:26.240Z,66.20
2019-03-23T07:52:26.221Z,65.60
2019-03-23T07:53:26.237Z,66.20
2019-03-23T07:54:27.004Z,65.00
2019-03-23T07:55:26.221Z,64.40
2019-03-23T07:56:26.189Z,63.70
2019-03-23T07:57:26.175Z,65.10
2019-03-23T07:58:26.168Z,65.50
2019-03-23T07:59:26.155Z,67.20
2019-03-23T08:00:26.155Z,64.30
2019-03-23T08:01:26.121Z,65.00
2019-03-23T08:02:26.123Z,64.40
2019-03-23T08:03:26.109Z,62.30
2019-03-23T08:04:26.117Z,60.90
2019-03-23T08:05:26.094Z,62.50
2019-03-23T08:06:26.068Z,61.80
2019-03-23T08:07:26.066Z,62.60
2019-03-23T08:08:26.060Z,60.70
2019-03-23T08:09:26.042Z,62.20
2019-03-23T08:10:26.040Z,60.60
2019-03-23T08:11:26.051Z,58.60
2019-03-23T08:12:26.961Z,61.50
2019-03-23T08:13:26.040Z,61.10
2019-03-23T08:14:25.991Z,61.60
2019-03-23T08:15:25.995Z,61.30
2019-03-23T08:16:25.972Z,59.40
2019-03-23T08:17:26.009Z,63.20
2019-03-23T08:18:25.943Z,62.10
2019-03-23T08:19:25.932Z,59.50
2019-03-23T08:20:25.936Z,59.50
2019-03-23T08:21:25.925Z,59.60
2019-03-23T08:22:25.899Z,59.40
2019-03-23T08:23:25.891Z,61.80
2019-03-23T08:24:25.868Z,57.60
2019-03-23T08:25:25.895Z,57.40
2019-03-23T08:26:25.853Z,59.50
2019-03-23T08:27:25.852Z,59.40
2019-03-23T08:28:25.847Z,57.60
2019-03-23T08:29:25.816Z,57.20
2019-03-23T08:30:25.831Z,57.60
2019-03-23T08:31:25.812Z,58.10
2019-03-23T08:32:25.784Z,57.30
2019-03-23T08:33:25.777Z,60.40
2019-03-23T08:34:25.757Z,58.90
2019-03-23T08:35:25.793Z,61.60
2019-03-23T08:36:25.738Z,59.80
2019-03-23T08:37:25.740Z,58.80
2019-03-23T08:38:25.736Z,58.90
2019-03-23T08:39:25.722Z,60.00
2019-03-23T08:40:25.712Z,57.70
2019-03-23T08:41:25.685Z,57.10
2019-03-23T08:42:25.680Z,59.30
2019-03-23T08:43:25.669Z,60.00
2019-03-23T08:44:25.656Z,58.70
2019-03-23T08:45:25.658Z,59.40
2019-03-23T08:46:25.641Z,60.00
2019-03-23T08:47:25.623Z,60.40
2019-03-23T08:48:25.608Z,60.50
2019-03-23T08:49:25.602Z,61.10
2019-03-23T08:50:25.618Z,59.70
2019-03-23T08:51:25.572Z,60.40
2019-03-23T08:52:25.563Z,61.40
2019-03-23T08:53:25.562Z,61.00
2019-03-23T08:54:25.577Z,61.90
2019-03-23T08:55:25.573Z,61.00
2019-03-23T08:56:25.534Z,61.60
2019-03-23T08:57:25.519Z,61.80
2019-03-23T08:58:25.509Z,59.70
2019-03-23T08:59:25.488Z,61.00
2019-03-23T09:00:25.498Z,60.00
2019-03-23T09:01:25.471Z,59.60
2019-03-23T09:02:25.464Z,60.30
2019-03-23T09:03:25.458Z,57.60
2019-03-23T09:04:25.470Z,60.40
2019-03-23T09:05:25.458Z,58.80
2019-03-23T09:06:25.423Z,59.00
2019-03-23T09:07:25.400Z,59.90
2019-03-23T09:09:34.677Z,54.00
2019-03-23T09:10:35.600Z,60.80
2019-03-23T09:11:35.572Z,60.60
2019-03-23T09:12:35.549Z,61.00
2019-03-23T09:13:40.605Z,62.00
2019-03-23T09:14:35.525Z,59.70
2019-03-23T09:15:35.535Z,62.10
2019-03-23T09:16:35.509Z,61.40
2019-03-23T09:17:35.500Z,61.80
2019-03-23T09:18:36.337Z,61.90
2019-03-23T09:19:35.471Z,61.70
2019-03-23T09:20:35.477Z,60.90
2019-03-23T09:21:35.455Z,59.30
2019-03-23T09:22:35.445Z,60.20
2019-03-23T09:23:35.433Z,61.60
2019-03-23T09:24:35.418Z,60.20
2019-03-23T09:25:35.429Z,61.30
2019-03-23T09:26:35.398Z,59.30
2019-03-23T09:27:35.407Z,59.60
2019-03-23T09:28:35.378Z,61.50
2019-03-23T09:29:35.378Z,61.70
2019-03-23T09:30:35.373Z,61.40
2019-03-23T09:31:35.336Z,60.50
2019-03-23T09:32:35.322Z,62.80
2019-03-23T09:33:35.317Z,60.00
2019-03-23T09:34:35.318Z,61.80
2019-03-23T09:35:39.301Z,63.20
2019-03-23T09:36:35.281Z,61.30
2019-03-23T09:37:38.125Z,61.20
2019-03-23T09:38:35.261Z,62.70
2019-03-23T09:39:35.270Z,61.40
2019-03-23T09:40:35.273Z,60.40
2019-03-23T09:41:35.227Z,62.60
2019-03-23T09:42:35.217Z,63.10
2019-03-23T09:43:35.216Z,64.40
2019-03-23T09:44:35.196Z,62.70
2019-03-23T09:45:35.340Z,65.30
2019-03-23T09:46:35.175Z,62.00
2019-03-23T09:47:35.175Z,63.90
2019-03-23T09:48:35.151Z,65.80
2019-03-23T09:49:35.149Z,62.80
2019-03-23T09:50:35.158Z,65.00
2019-03-23T09:51:35.119Z,64.80
2019-03-23T09:52:35.104Z,65.60
2019-03-23T09:53:35.106Z,67.40
2019-03-23T09:54:35.087Z,65.30
2019-03-23T09:55:35.098Z,65.40
2019-03-23T09:56:35.068Z,64.30
2019-03-23T09:57:35.060Z,66.20
2019-03-23T09:58:35.042Z,63.50
2019-03-23T09:59:35.033Z,65.00
2019-03-23T10:00:35.045Z,64.20
2019-03-23T10:01:35.027Z,64.10
2019-03-23T10:02:35.001Z,66.40
2019-03-23T10:03:34.997Z,64.70
2019-03-23T10:04:34.975Z,63.70
2019-03-23T10:05:34.984Z,62.80
2019-03-23T10:06:34.980Z,63.40
2019-03-23T10:07:34.952Z,64.30
2019-03-23T10:08:34.936Z,64.50
2019-03-23T10:09:34.932Z,61.60
2019-03-23T10:10:34.934Z,62.90
2019-03-23T10:11:34.905Z,61.60
2019-03-23T10:12:34.885Z,62.20
2019-03-23T10:13:34.873Z,63.50
2019-03-23T10:14:34.863Z,61.40
2019-03-23T10:15:34.870Z,63.60
2019-03-23T10:16:34.842Z,62.50
2019-03-23T10:17:34.830Z,62.10
2019-03-23T10:18:34.815Z,62.70
2019-03-23T10:19:34.831Z,64.00
2019-03-23T10:20:34.819Z,60.70
2019-03-23T10:21:34.799Z,59.20
2019-03-23T10:22:34.790Z,60.80
2019-03-23T10:23:34.784Z,62.50
2019-03-23T10:24:34.761Z,63.20
2019-03-23T10:25:34.757Z,64.50
2019-03-23T10:26:34.737Z,60.80
2019-03-23T10:27:34.728Z,62.70
2019-03-23T10:28:34.719Z,61.50
2019-03-23T10:29:35.343Z,63.40
2019-03-23T10:30:34.853Z,62.90
2019-03-23T10:31:34.687Z,63.10
2019-03-23T10:32:34.685Z,62.10
2019-03-23T10:33:34.677Z,63.50
2019-03-23T10:34:35.345Z,62.30
2019-03-23T10:35:34.870Z,61.70
2019-03-23T10:36:35.338Z,60.80
2019-03-23T10:37:35.335Z,59.00
2019-03-23T10:38:34.754Z,59.50
2019-03-23T10:39:35.342Z,60.80
2019-03-23T10:40:35.333Z,60.00
2019-03-23T10:41:34.708Z,60.70
2019-03-23T10:42:34.628Z,58.10
2019-03-23T10:43:34.540Z,59.60
2019-03-23T10:44:34.541Z,58.70
2019-03-23T10:45:43.824Z,59.20
2019-03-23T10:46:34.523Z,57.30
2019-03-23T10:47:35.422Z,56.50
2019-03-23T10:48:34.497Z,56.60
2019-03-23T10:49:34.480Z,57.90
2019-03-23T10:50:34.476Z,59.00
2019-03-23T10:51:34.466Z,58.10
2019-03-23T10:52:34.488Z,57.70
2019-03-23T10:53:34.438Z,57.90
2019-03-23T10:54:34.423Z,56.70
2019-03-23T10:55:34.413Z,56.70
2019-03-23T10:56:34.427Z,57.30
2019-03-23T10:57:34.382Z,58.30
2019-03-23T10:58:34.393Z,57.70
2019-03-23T10:59:34.388Z,57.20
2019-03-23T11:00:34.354Z,55.20
2019-03-23T11:01:34.371Z,57.20
2019-03-23T11:02:34.325Z,56.60
2019-03-23T11:03:34.313Z,58.30
2019-03-23T11:04:34.317Z,53.90
2019-03-23T11:05:34.307Z,55.60
2019-03-23T11:06:34.306Z,56.40
2019-03-23T11:07:34.280Z,56.00
2019-03-23T11:08:34.282Z,54.80
2019-03-23T11:10:43.487Z,51.50
2019-03-23T11:11:44.470Z,53.50
2019-03-23T11:12:44.461Z,56.70
2019-03-23T11:13:44.438Z,56.70
2019-03-23T11:14:44.450Z,54.50
2019-03-23T11:15:44.441Z,56.50
2019-03-23T11:16:44.417Z,54.40
2019-03-23T11:17:44.415Z,54.80
2019-03-23T11:18:44.386Z,55.10
2019-03-23T11:19:44.390Z,58.20
2019-03-23T11:20:44.387Z,55.60
2019-03-23T11:21:44.369Z,54.30
2019-03-23T11:22:44.337Z,54.90
2019-03-23T11:23:45.555Z,56.10
2019-03-23T11:24:44.311Z,56.80
2019-03-23T11:25:44.308Z,54.70
2019-03-23T11:26:44.345Z,56.40
2019-03-23T11:27:44.282Z,53.40
2019-03-23T11:28:44.279Z,53.80
2019-03-23T11:29:44.278Z,52.30
2019-03-23T11:30:44.252Z,52.50
2019-03-23T11:31:44.260Z,53.50
2019-03-23T11:32:44.236Z,53.90
2019-03-23T11:33:44.228Z,54.40
2019-03-23T11:34:44.200Z,54.90
2019-03-23T11:35:44.196Z,52.30
2019-03-23T11:36:44.209Z,54.50
2019-03-23T11:37:44.403Z,53.70
2019-03-23T11:38:44.167Z,53.90
2019-03-23T11:39:44.150Z,54.00
2019-03-23T11:40:52.205Z,55.20
2019-03-23T11:41:44.155Z,54.20
2019-03-23T11:42:49.818Z,54.30
2019-03-23T11:43:44.114Z,54.60
2019-03-23T11:44:44.138Z,54.30
2019-03-23T11:45:44.090Z,52.40
2019-03-23T11:46:44.085Z,53.50
2019-03-23T11:47:44.053Z,52.20
2019-03-23T11:48:44.063Z,51.20
2019-03-23T11:49:44.051Z,50.60
2019-03-23T11:50:44.038Z,49.90
2019-03-23T11:51:44.033Z,51.40
2019-03-23T11:52:44.011Z,50.10
2019-03-23T11:53:43.997Z,48.90
2019-03-23T11:54:43.982Z,48.10
2019-03-23T11:55:43.971Z,49.60
2019-03-23T11:56:43.986Z,49.00
2019-03-23T11:57:43.953Z,46.90
2019-03-23T11:58:43.932Z,47.30
2019-03-23T11:59:43.933Z,47.00
2019-03-23T12:00:43.927Z,47.60
2019-03-23T12:01:51.494Z,46.60
2019-03-23T12:02:43.899Z,46.70
2019-03-23T12:03:43.890Z,47.90
2019-03-23T12:04:43.873Z,48.60
2019-03-23T12:05:43.860Z,48.70
2019-03-23T12:06:43.875Z,47.60
2019-03-23T12:07:43.838Z,50.10
2019-03-23T12:08:43.832Z,47.30
2019-03-23T12:09:43.832Z,47.10
2019-03-23T12:10:43.815Z,46.20
2019-03-23T12:11:43.814Z,46.90
2019-03-23T12:12:43.787Z,45.80
2019-03-23T12:13:43.770Z,47.00
2019-03-23T12:14:43.763Z,48.30
2019-03-23T12:15:43.744Z,47.50
2019-03-23T12:16:43.765Z,48.00
2019-03-23T12:17:43.724Z,47.60
2019-03-23T12:18:43.730Z,46.90
2019-03-23T12:19:43.715Z,48.30
2019-03-23T12:20:43.704Z,48.60
2019-03-23T12:21:43.704Z,47.90
2019-03-23T12:22:43.677Z,48.30
2019-03-23T12:23:43.661Z,46.90
2019-03-23T12:24:43.653Z,48.00
2019-03-23T12:25:43.645Z,47.10
2019-03-23T12:26:43.661Z,46.00
2019-03-23T12:27:43.632Z,48.30
2019-03-23T12:28:43.616Z,45.80
2019-03-23T12:29:43.593Z,45.50
2019-03-23T12:30:43.606Z,46.90
2019-03-23T12:31:43.614Z,46.50
2019-03-23T12:32:43.573Z,47.10
2019-03-23T12:33:43.562Z,46.90
2019-03-23T12:34:44.205Z,46.20
2019-03-23T12:35:43.550Z,46.70
2019-03-23T12:36:43.540Z,48.00
2019-03-23T12:37:43.534Z,45.60
2019-03-23T12:38:43.491Z,46.70
2019-03-23T12:39:43.492Z,46.90
2019-03-23T12:40:43.494Z,45.70
2019-03-23T12:41:43.476Z,48.20
2019-03-23T12:42:43.461Z,48.00
2019-03-23T12:43:43.443Z,46.50
2019-03-23T12:44:43.433Z,46.50
2019-03-23T12:45:43.455Z,45.60
2019-03-23T12:46:48.287Z,45.70
2019-03-23T12:47:43.396Z,45.30
2019-03-23T12:48:43.394Z,43.80
2019-03-23T12:49:43.383Z,45.30
2019-03-23T12:50:43.364Z,44.50
2019-03-23T12:51:43.384Z,45.10
2019-03-23T12:52:43.346Z,44.70
2019-03-23T12:53:43.323Z,45.60
2019-03-23T12:54:43.324Z,43.60
2019-03-23T12:55:43.311Z,41.50
2019-03-23T12:56:43.339Z,42.70
2019-03-23T12:57:43.293Z,43.20
2019-03-23T12:58:43.285Z,42.10